Time;durP1;ratioP1;P1;durP2;ratioP2;P2;SDS_P1;SDS_P2;PMS_P1;PMS_P2;Temp;Humidity;BMP_temperature;BMP_pressure;BME280_temperature;BME280_humidity;BME280_pressure;Samples;Min_cycle;Max_cycle;Signal;HPM_P1;HPM_P2
2023/10/25 00:00:57;;;;;;;19.98;7.25;;;;;;;12.85;96.68;100393.81;4928770;28;20082;-58
2023/10/25 00:03:28;;;;;;;26.80;7.80;;;;;;;12.84;97.23;100396.50;4919597;28;20397;-58
2023/10/25 00:05:59;;;;;;;22.95;8.05;;;;;;;12.88;97.44;100393.75;4928935;28;20055;-59
2023/10/25 00:08:29;;;;;;;22.95;8.43;;;;;;;12.86;97.46;100400.81;4918378;28;20070;-58
2023/10/25 00:11:05;;;;;;;23.38;7.20;;;;;;;12.86;96.92;100400.81;4913504;28;20048;-60
2023/10/25 00:13:37;;;;;;;19.90;7.07;;;;;;;12.89;96.70;100400.72;4904693;28;20054;-59
2023/10/25 00:16:07;;;;;;;17.52;7.78;;;;;;;12.99;96.13;100400.50;4947942;28;20074;-59
2023/10/25 00:18:38;;;;;;;18.17;7.05;;;;;;;12.87;96.15;100386.78;4926125;28;20055;-59
2023/10/25 00:21:08;;;;;;;23.35;7.63;;;;;;;12.94;95.94;100401.47;4929024;28;20109;-58
2023/10/25 00:23:39;;;;;;;23.77;8.02;;;;;;;12.93;95.81;100401.53;4918925;28;20154;-60
2023/10/25 00:26:10;;;;;;;22.40;7.50;;;;;;;12.93;95.70;100401.53;4929299;28;20055;-59
2023/10/25 00:28:42;;;;;;;19.83;7.65;;;;;;;12.96;96.00;100404.06;4931879;28;20055;-58
2023/10/25 00:31:13;;;;;;;20.80;7.32;;;;;;;13.10;96.32;100403.72;4946428;28;20137;-59
2023/10/25 00:33:44;;;;;;;25.45;8.07;;;;;;;13.12;95.47;100407.16;4947260;28;20050;-59
2023/10/25 00:36:14;;;;;;;25.92;8.15;;;;;;;13.19;95.26;100403.50;4934504;28;20055;-59
2023/10/25 00:38:45;;;;;;;25.33;7.47;;;;;;;13.34;95.36;100403.13;4928343;28;20059;-58
2023/10/25 00:41:15;;;;;;;20.23;7.00;;;;;;;13.49;94.71;100395.78;4919351;28;20047;-59
2023/10/25 00:43:47;;;;;;;21.25;8.13;;;;;;;13.49;94.13;100401.88;4928234;28;20620;-59
2023/10/25 00:46:21;;;;;;;18.52;7.47;;;;;;;13.49;94.01;100403.66;4918360;28;20086;-59
2023/10/25 00:48:55;;;;;;;22.60;7.97;;;;;;;13.56;93.63;100406.06;4927861;28;20134;-58
2023/10/25 00:51:27;;;;;;;16.83;7.60;;;;;;;13.59;93.21;100403.38;4918736;28;20509;-59
2023/10/25 00:54:01;;;;;;;23.95;6.65;;;;;;;13.64;91.96;100410.28;4927792;28;20405;-58
2023/10/25 00:56:34;;;;;;;13.32;6.00;;;;;;;13.69;91.40;100409.22;4918295;28;20065;-59
2023/10/25 00:59:06;;;;;;;19.50;6.40;;;;;;;13.72;90.95;100409.16;4928743;28;20043;-58
2023/10/25 01:01:37;;;;;;;19.33;6.97;;;;;;;13.75;90.42;100413.44;4917919;28;20055;-58
2023/10/25 01:04:07;;;;;;;18.42;7.15;;;;;;;13.79;90.36;100405.44;4927767;28;20051;-59
2023/10/25 01:06:38;;;;;;;13.20;6.35;;;;;;;13.85;90.19;100398.31;4918061;28;20466;-59
2023/10/25 01:09:09;;;;;;;15.53;7.10;;;;;;;13.87;89.99;100401.75;4934012;28;20051;-59
2023/10/25 01:11:41;;;;;;;15.73;6.38;;;;;;;13.94;89.62;100403.31;4917701;28;20285;-58
2023/10/25 01:14:13;;;;;;;20.45;7.13;;;;;;;13.99;89.20;100401.41;4920743;28;20055;-58
2023/10/25 01:16:43;;;;;;;16.83;6.60;;;;;;;14.15;88.78;100397.47;4927522;28;20051;-59
2023/10/25 01:19:14;;;;;;;20.60;6.57;;;;;;;14.48;87.78;100410.50;4921197;28;20051;-59
2023/10/25 01:21:44;;;;;;;14.80;5.87;;;;;;;14.42;86.66;100368.63;4927451;28;20098;-58
2023/10/25 01:24:16;;;;;;;17.23;6.03;;;;;;;14.46;85.59;100407.06;4918020;28;20635;-58
2023/10/25 01:26:47;;;;;;;16.33;6.00;;;;;;;14.37;85.73;100407.31;4927703;28;20286;-58
2023/10/25 01:29:17;;;;;;;19.50;6.80;;;;;;;14.38;85.17;100399.41;4918377;28;20282;-58
2023/10/25 01:31:47;;;;;;;22.70;6.40;;;;;;;14.57;85.14;100415.50;4927422;28;20286;-58
2023/10/25 01:34:19;;;;;;;19.93;6.07;;;;;;;14.53;84.10;100398.13;4917745;28;20484;-58
2023/10/25 01:36:49;;;;;;;18.63;6.73;;;;;;;14.49;83.78;100401.69;4918990;28;20301;-57
2023/10/25 01:39:21;;;;;;;20.13;6.40;;;;;;;14.61;83.99;100393.47;4899059;28;20450;-58
2023/10/25 01:41:51;;;;;;;20.50;6.93;;;;;;;14.79;83.80;100396.44;4908349;28;20295;-58
2023/10/25 01:44:22;;;;;;;23.83;7.00;;;;;;;14.87;83.31;100389.16;4899111;28;20292;-58
2023/10/25 01:46:53;;;;;;;20.67;6.40;;;;;;;14.98;82.38;100384.41;4907835;28;20853;-58
2023/10/25 01:49:24;;;;;;;18.23;6.57;;;;;;;14.96;82.15;100359.06;4898447;28;20294;-58
2023/10/25 01:51:54;;;;;;;15.83;5.80;;;;;;;15.32;82.10;100372.75;4907999;28;20331;-58
2023/10/25 01:54:27;;;;;;;13.40;5.17;;;;;;;15.46;80.46;100381.03;4898734;28;20295;-58
2023/10/25 01:56:57;;;;;;;14.83;4.87;;;;;;;15.43;77.74;100375.88;4907949;28;20825;-58
2023/10/25 01:59:27;;;;;;;20.03;6.43;;;;;;;15.48;78.93;100371.31;4898226;28;20284;-60
2023/10/25 02:01:58;;;;;;;18.53;5.50;;;;;;;15.54;78.50;100373.72;4921096;28;20301;-59
2023/10/25 02:04:28;;;;;;;20.00;6.03;;;;;;;15.62;78.60;100369.97;4912777;28;20826;-59
2023/10/25 02:06:59;;;;;;;14.70;5.80;;;;;;;15.68;78.18;100360.09;4922539;28;20696;-59
2023/10/25 02:09:32;;;;;;;15.63;5.67;;;;;;;15.79;78.57;100357.09;4912892;28;20282;-59
2023/10/25 02:12:02;;;;;;;19.03;6.43;;;;;;;15.69;78.16;100330.22;4922571;28;20287;-59
2023/10/25 02:14:34;;;;;;;23.00;5.80;;;;;;;16.04;77.11;100361.44;4912169;28;20280;-60
2023/10/25 02:17:05;;;;;;;12.20;4.70;;;;;;;16.11;76.25;100358.53;4922646;28;20313;-60
2023/10/25 02:19:36;;;;;;;18.27;5.70;;;;;;;16.27;76.69;100369.34;4912093;28;20275;-60
2023/10/25 02:22:07;;;;;;;17.87;5.87;;;;;;;16.32;75.29;100372.66;4922012;28;21492;-60
2023/10/25 02:24:39;;;;;;;19.00;5.60;;;;;;;16.31;74.51;100362.19;4911806;28;20385;-59
2023/10/25 02:27:09;;;;;;;21.83;5.50;;;;;;;16.35;74.20;100359.38;4921450;28;20331;-60
2023/10/25 02:29:40;;;;;;;14.27;5.60;;;;;;;16.15;73.92;100322.38;4911014;28;20298;-60
2023/10/25 02:32:10;;;;;;;16.80;5.53;;;;;;;16.37;73.77;100354.91;4921711;28;20301;-60
2023/10/25 02:34:41;;;;;;;17.03;5.37;;;;;;;16.36;72.79;100347.03;4912721;28;20394;-59
2023/10/25 02:37:11;;;;;;;13.63;5.33;;;;;;;16.31;73.64;100349.84;4921186;28;20295;-60
2023/10/25 02:39:43;;;;;;;12.30;5.07;;;;;;;16.34;74.60;100344.44;4911420;28;20299;-59
2023/10/25 02:42:14;;;;;;;14.90;5.60;;;;;;;16.35;74.15;100346.19;4915323;28;20678;-60
2023/10/25 02:44:44;;;;;;;22.37;6.37;;;;;;;16.35;74.82;100348.81;4921076;28;20306;-60
2023/10/25 02:47:14;;;;;;;15.00;6.07;;;;;;;16.38;73.56;100346.06;4912347;28;20313;-60
2023/10/25 02:49:45;;;;;;;16.63;5.67;;;;;;;16.37;73.74;100344.38;4922128;28;20295;-60
2023/10/25 02:52:15;;;;;;;19.03;5.73;;;;;;;16.37;73.80;100344.38;4912399;28;20313;-60
2023/10/25 02:54:47;;;;;;;14.93;5.50;;;;;;;16.33;73.88;100342.75;4921702;28;20767;-60
2023/10/25 02:57:18;;;;;;;18.87;7.20;;;;;;;16.26;73.63;100346.53;4911912;28;20618;-60
2023/10/25 02:59:51;;;;;;;21.67;5.50;;;;;;;16.26;74.55;100341.25;4921413;28;20291;-60
2023/10/25 03:02:21;;;;;;;18.17;5.60;;;;;;;16.41;74.88;100349.50;4912759;28;20937;-60
2023/10/25 03:04:52;;;;;;;16.07;5.43;;;;;;;16.47;74.19;100338.69;4922240;28;20290;-60
2023/10/25 03:07:22;;;;;;;21.77;6.13;;;;;;;16.47;74.22;100336.06;4911616;28;20294;-60
2023/10/25 03:09:54;;;;;;;15.03;5.07;;;;;;;16.46;72.93;100331.72;4921945;28;20291;-59
2023/10/25 03:12:24;;;;;;;17.23;5.93;;;;;;;16.53;73.79;100333.19;4911511;28;20329;-59
2023/10/25 03:14:55;;;;;;;16.87;5.43;;;;;;;16.69;73.73;100334.28;4921660;28;20294;-60
2023/10/25 03:17:27;;;;;;;19.23;5.57;;;;;;;16.69;72.29;100334.28;4912511;28;20311;-60
2023/10/25 03:20:00;;;;;;;16.63;5.10;;;;;;;16.66;72.35;100323.88;4921752;28;20294;-60
2023/10/25 03:22:30;;;;;;;23.33;5.63;;;;;;;16.79;71.01;100330.38;4912304;28;20303;-60
2023/10/25 03:25:02;;;;;;;12.90;4.83;;;;;;;16.91;70.42;100328.16;4921545;28;20291;-60
2023/10/25 03:27:32;;;;;;;12.40;5.00;;;;;;;16.91;69.89;100320.25;4912466;28;20746;-60
2023/10/25 03:30:03;;;;;;;22.60;5.87;;;;;;;16.75;70.75;100328.78;4921507;28;20466;-60
2023/10/25 03:32:33;;;;;;;16.07;6.00;;;;;;;16.52;71.24;100320.91;4915679;28;20295;-60
2023/10/25 03:35:04;;;;;;;22.13;6.10;;;;;;;16.30;72.27;100310.34;4925437;28;20323;-60
2023/10/25 03:37:35;;;;;;;15.13;5.40;;;;;;;16.26;72.52;100314.06;4915452;28;20467;-60
2023/10/25 03:40:09;;;;;;;12.63;5.20;;;;;;;16.34;73.04;100317.22;4925350;28;20287;-59
2023/10/25 03:42:40;;;;;;;18.30;5.10;;;;;;;16.34;72.73;100291.72;4915660;28;20283;-60
2023/10/25 03:45:12;;;;;;;13.63;5.23;;;;;;;16.49;71.01;100310.50;4925058;28;20302;-60
2023/10/25 03:47:42;;;;;;;13.13;5.07;;;;;;;16.59;71.31;100306.56;4915477;28;20286;-60
2023/10/25 03:50:13;;;;;;;17.43;5.37;;;;;;;16.57;70.31;100292.56;4924411;28;20397;-60
2023/10/25 03:52:43;;;;;;;10.63;4.50;;;;;;;16.54;70.78;100303.25;4924472;28;20290;-60
2023/10/25 03:55:15;;;;;;;19.37;5.17;;;;;;;16.43;70.74;100302.84;4920263;28;20393;-60
2023/10/25 03:57:46;;;;;;;21.10;5.30;;;;;;;16.31;71.22;100297.13;4924615;28;20291;-60
2023/10/25 04:00:16;;;;;;;18.33;5.03;;;;;;;16.27;70.96;100294.66;4914793;28;20310;-60
2023/10/25 04:02:47;;;;;;;25.03;5.47;;;;;;;16.35;71.68;100282.91;4924293;28;20287;-60
2023/10/25 04:05:17;;;;;;;16.10;5.17;;;;;;;16.64;70.58;100294.03;4915686;28;20767;-59
2023/10/25 04:07:51;;;;;;;13.50;5.33;;;;;;;16.90;70.22;100290.38;4924571;28;20283;-60
2023/10/25 04:10:23;;;;;;;13.70;5.27;;;;;;;17.11;69.25;100288.59;4915292;28;20310;-60
2023/10/25 04:12:53;;;;;;;22.33;5.50;;;;;;;17.30;68.09;100306.25;4924474;28;20303;-60
2023/10/25 04:15:25;;;;;;;12.83;5.10;;;;;;;17.29;67.37;100302.78;4914666;28;20302;-60
2023/10/25 04:17:55;;;;;;;11.53;5.40;;;;;;;17.18;67.30;100310.31;4924262;28;20287;-61
2023/10/25 04:20:26;;;;;;;13.07;5.40;;;;;;;17.07;67.88;100297.56;4914993;28;20294;-60
2023/10/25 04:22:56;;;;;;;14.50;5.47;;;;;;;17.10;68.27;100302.72;4923979;28;20307;-60
2023/10/25 04:25:28;;;;;;;14.77;5.43;;;;;;;17.05;67.17;100296.78;4914609;28;20925;-60
2023/10/25 04:27:58;;;;;;;10.93;4.87;;;;;;;16.97;66.66;100296.22;4924857;28;20295;-60
2023/10/25 04:30:29;;;;;;;17.87;5.70;;;;;;;17.00;67.32;100296.13;4914801;28;20295;-60
2023/10/25 04:32:59;;;;;;;17.47;5.10;;;;;;;17.00;66.52;100302.25;4924188;28;20298;-60
2023/10/25 04:35:30;;;;;;;16.83;5.23;;;;;;;16.95;66.50;100292.81;4915109;28;20302;-60
2023/10/25 04:38:01;;;;;;;16.63;6.23;;;;;;;16.91;66.12;100301.78;4924106;28;20314;-60
2023/10/25 04:40:33;;;;;;;16.23;6.03;;;;;;;16.94;67.33;100301.66;4914242;28;20306;-60
2023/10/25 04:43:03;;;;;;;19.77;5.50;;;;;;;16.81;67.64;100267.84;4923532;28;20313;-60
2023/10/25 04:45:36;;;;;;;13.57;5.70;;;;;;;16.98;65.60;100290.91;4914193;28;20275;-60
2023/10/25 04:48:07;;;;;;;13.80;5.53;;;;;;;16.98;64.36;100298.81;4923647;28;20283;-60
2023/10/25 04:50:39;;;;;;;14.90;5.47;;;;;;;16.96;66.28;100302.44;4914396;28;20287;-60
2023/10/25 04:53:09;;;;;;;12.57;5.50;;;;;;;17.00;67.17;100311.97;4924299;28;20291;-60
2023/10/25 04:55:46;;;;;;;13.93;5.33;;;;;;;16.99;67.61;100312.88;4913895;28;20385;-60
2023/10/25 04:58:18;;;;;;;14.40;4.83;;;;;;;16.94;66.65;100318.34;4914103;28;20291;-60
2023/10/25 05:00:51;;;;;;;15.53;5.63;;;;;;;16.84;65.29;100321.44;4923694;28;20301;-60
2023/10/25 05:03:21;;;;;;;14.70;5.10;;;;;;;16.76;65.08;100329.63;4914195;28;20291;-60
2023/10/25 05:05:54;;;;;;;14.10;4.80;;;;;;;16.69;64.34;100329.00;4923135;28;20716;-60
2023/10/25 05:08:25;;;;;;;13.63;5.60;;;;;;;16.66;64.69;100342.34;4914291;28;20381;-60
2023/10/25 05:10:58;;;;;;;11.97;4.63;;;;;;;16.66;66.23;100339.69;4923755;28;20993;-60
2023/10/25 05:13:29;;;;;;;13.60;5.70;;;;;;;16.64;67.49;100346.81;4913734;28;20819;-60
2023/10/25 05:16:00;;;;;;;20.80;5.80;;;;;;;16.62;68.13;100359.19;4923258;28;20293;-60
2023/10/25 05:18:31;;;;;;;19.80;6.50;;;;;;;16.54;66.72;100366.56;4911574;28;20291;-60
2023/10/25 05:21:03;;;;;;;21.83;6.33;;;;;;;16.42;66.32;100367.88;4922098;28;20283;-60
2023/10/25 05:23:35;;;;;;;15.77;5.33;;;;;;;16.29;66.63;100371.94;4913933;28;20431;-60
2023/10/25 05:26:08;;;;;;;11.40;5.30;;;;;;;16.19;66.71;100371.41;4922762;28;20302;-60
2023/10/25 05:28:39;;;;;;;14.07;5.20;;;;;;;16.02;67.51;100379.94;4913859;28;20374;-60
2023/10/25 05:31:12;;;;;;;22.97;6.30;;;;;;;15.87;68.63;100386.63;4923108;28;20303;-60
2023/10/25 05:33:43;;;;;;;16.63;6.83;;;;;;;15.73;69.50;100391.56;4913776;28;20302;-60
2023/10/25 05:36:15;;;;;;;11.67;6.07;;;;;;;15.62;70.34;100391.03;4919935;28;20307;-61
2023/10/25 05:38:46;;;;;;;13.63;6.07;;;;;;;15.53;70.99;100390.44;4922824;28;20322;-60
2023/10/25 05:41:21;;;;;;;20.67;6.60;;;;;;;15.36;71.11;100384.91;4913563;28;20796;-60
2023/10/25 05:44:02;;;;;;;13.80;5.97;;;;;;;15.30;71.36;100395.63;4923077;28;20290;-61
2023/10/25 05:46:33;;;;;;;18.00;7.00;;;;;;;15.22;72.17;100393.25;4912463;28;21346;-59
2023/10/25 05:49:04;;;;;;;16.23;6.90;;;;;;;15.15;72.27;100390.88;4922750;28;20308;-59
2023/10/25 05:51:35;;;;;;;20.97;6.60;;;;;;;15.05;72.42;100396.47;4913124;28;20301;-59
2023/10/25 05:54:07;;;;;;;15.07;7.17;;;;;;;15.00;72.29;100398.41;4922303;28;20287;-59
2023/10/25 05:56:40;;;;;;;18.23;7.57;;;;;;;14.83;72.55;100385.78;4912363;28;20370;-59
2023/10/25 05:59:11;;;;;;;14.60;7.20;;;;;;;14.94;72.53;100409.09;4923018;28;20298;-59
2023/10/25 06:01:49;;;;;;;20.47;7.73;;;;;;;14.91;73.25;100413.63;4912703;28;20295;-60
2023/10/25 06:04:22;;;;;;;23.23;8.30;;;;;;;14.82;73.50;100420.00;4912287;28;20342;-59
2023/10/25 06:06:53;;;;;;;17.87;7.20;;;;;;;14.51;73.27;100426.19;4921697;28;20290;-59
2023/10/25 06:09:24;;;;;;;12.63;6.90;;;;;;;13.79;73.89;100363.44;4913071;28;20282;-59
2023/10/25 06:11:56;;;;;;;21.13;7.23;;;;;;;13.97;74.90;100429.50;4922455;28;20310;-59
2023/10/25 06:14:27;;;;;;;17.27;7.33;;;;;;;13.82;75.82;100436.88;4912790;28;20297;-59
2023/10/25 06:16:58;;;;;;;19.47;7.77;;;;;;;13.72;76.88;100435.41;4922295;28;20291;-59
2023/10/25 06:19:31;;;;;;;15.47;7.87;;;;;;;13.55;78.00;100437.59;4912695;28;20374;-59
2023/10/25 06:22:02;;;;;;;22.60;7.63;;;;;;;13.38;79.20;100441.53;4922158;28;20883;-59
2023/10/25 06:24:32;;;;;;;25.03;7.93;;;;;;;13.20;80.07;100447.19;4911309;28;20441;-59
2023/10/25 06:27:05;;;;;;;17.48;7.53;;;;;;;13.04;81.16;100451.09;4922542;28;21295;-60
2023/10/25 06:29:35;;;;;;;20.88;8.10;;;;;;;12.87;82.83;100448.84;4912906;28;20054;-60
2023/10/25 06:32:06;;;;;;;20.67;7.22;;;;;;;12.55;84.42;100446.94;4922927;28;20397;-59
2023/10/25 06:34:37;;;;;;;21.45;7.22;;;;;;;12.41;85.76;100461.22;4912947;28;20465;-60
2023/10/25 06:37:08;;;;;;;22.88;7.15;;;;;;;12.27;87.10;100465.88;4922260;28;20082;-59
2023/10/25 06:39:40;;;;;;;20.25;8.02;;;;;;;12.16;87.95;100465.22;4912471;28;20062;-59
2023/10/25 06:42:14;;;;;;;17.92;7.50;;;;;;;12.05;88.94;100465.41;4922101;28;20158;-59
2023/10/25 06:44:44;;;;;;;21.48;7.57;;;;;;;12.02;89.63;100470.72;4912485;28;20073;-60
2023/10/25 06:47:15;;;;;;;22.00;8.25;;;;;;;11.99;90.08;100468.16;4911232;28;20058;-60
2023/10/25 06:49:47;;;;;;;16.95;7.15;;;;;;;11.93;90.43;100469.16;4922320;28;20071;-60
2023/10/25 06:52:18;;;;;;;24.75;7.97;;;;;;;11.92;90.92;100472.66;4912349;28;20086;-60
2023/10/25 06:54:49;;;;;;;16.45;6.65;;;;;;;11.85;91.56;100466.63;4921357;28;20609;-60
2023/10/25 06:57:22;;;;;;;19.15;7.47;;;;;;;11.72;91.67;100459.03;4911298;28;20457;-60
2023/10/25 06:59:53;;;;;;;19.23;7.28;;;;;;;11.81;91.90;100485.06;4921258;28;20079;-61
2023/10/25 07:02:37;;;;;;;17.05;6.80;;;;;;;11.77;91.87;100483.38;4912600;28;20067;-60
2023/10/25 07:05:13;;;;;;;22.65;7.25;;;;;;;11.75;91.94;100486.00;4921714;28;20125;-61
2023/10/25 07:07:45;;;;;;;15.30;7.30;;;;;;;11.78;92.07;100500.78;4913941;28;20486;-60
2023/10/25 07:10:16;;;;;;;17.20;7.43;;;;;;;11.79;91.96;100502.53;4915668;28;20058;-60
2023/10/25 07:12:48;;;;;;;18.73;7.88;;;;;;;11.76;91.72;100500.84;4925488;28;20158;-60
2023/10/25 07:15:19;;;;;;;15.77;7.05;;;;;;;11.76;91.93;100497.38;4913228;28;20062;-60
2023/10/25 07:17:50;;;;;;;17.95;7.45;;;;;;;11.75;91.95;100503.47;4924642;28;20047;-60
2023/10/25 07:20:21;;;;;;;23.33;8.50;;;;;;;11.76;92.26;100502.59;4916134;28;20051;-61
2023/10/25 07:22:51;;;;;;;16.45;8.00;;;;;;;11.77;92.26;100504.31;4925272;28;20147;-60
2023/10/25 07:25:21;;;;;;;18.48;7.82;;;;;;;11.78;92.49;100521.75;4915500;28;20137;-60
2023/10/25 07:27:54;;;;;;;20.60;7.03;;;;;;;11.83;93.24;100509.44;4924886;28;20137;-61
2023/10/25 07:30:24;;;;;;;17.98;7.53;;;;;;;11.85;93.64;100512.88;4916002;28;20051;-61
2023/10/25 07:32:55;;;;;;;17.15;7.25;;;;;;;11.86;93.90;100509.41;4925601;28;20553;-60
2023/10/25 07:35:25;;;;;;;20.50;7.40;;;;;;;11.88;93.73;100510.25;4916148;28;20083;-61
2023/10/25 07:37:56;;;;;;;14.65;7.85;;;;;;;11.86;93.83;100522.50;4925463;28;20118;-60
2023/10/25 07:40:26;;;;;;;26.83;8.90;;;;;;;11.83;94.13;100512.03;4914343;28;20059;-60
2023/10/25 07:42:58;;;;;;;24.88;8.60;;;;;;;11.71;94.14;100509.66;4924578;28;20102;-60
2023/10/25 07:45:29;;;;;;;21.30;9.55;;;;;;;11.76;94.44;100523.53;4915670;28;20199;-60
2023/10/25 07:47:59;;;;;;;29.75;9.32;;;;;;;11.70;94.02;100523.63;4925054;28;20079;-60
2023/10/25 07:50:30;;;;;;;28.27;8.15;;;;;;;11.54;93.77;100526.50;4916030;28;20065;-61
2023/10/25 07:53:01;;;;;;;15.85;6.65;;;;;;;11.41;94.28;100530.22;4925102;28;20051;-60
2023/10/25 07:55:31;;;;;;;15.77;8.40;;;;;;;11.37;94.89;100541.59;4915001;28;20057;-60
2023/10/25 07:58:07;;;;;;;23.70;8.20;;;;;;;11.40;95.29;100546.78;4924935;28;20059;-61
2023/10/25 08:00:40;;;;;;;24.83;8.25;;;;;;;11.33;94.79;100551.25;4914508;28;20623;-61
2023/10/25 08:03:13;;;;;;;23.20;8.98;;;;;;;11.26;94.99;100553.97;4924684;28;20123;-60
2023/10/25 08:05:43;;;;;;;25.25;8.70;;;;;;;11.21;95.11;100562.75;4915426;28;20062;-60
2023/10/25 08:08:14;;;;;;;27.67;9.85;;;;;;;10.90;95.49;100528.31;4919110;28;20106;-60
2023/10/25 08:10:44;;;;;;;21.38;9.95;;;;;;;11.04;96.06;100562.13;4924256;28;20157;-60
2023/10/25 08:13:16;;;;;;;19.55;8.38;;;;;;;10.90;96.88;100564.06;4914853;28;20062;-60
2023/10/25 08:15:46;;;;;;;17.95;8.45;;;;;;;10.78;97.81;100568.56;4924520;28;20054;-60
2023/10/25 08:18:19;;;;;;;17.65;8.13;;;;;;;10.72;98.13;100581.69;4913603;28;20063;-60
2023/10/25 08:20:49;;;;;;;26.55;9.57;;;;;;;10.70;98.57;100580.84;4923657;28;20052;-60
2023/10/25 08:23:20;;;;;;;23.55;9.75;;;;;;;10.65;98.63;100582.66;4915176;28;20051;-59
2023/10/25 08:25:51;;;;;;;23.80;9.27;;;;;;;10.49;99.13;100581.09;4924549;28;20079;-59
2023/10/25 08:28:23;;;;;;;27.95;10.32;;;;;;;10.41;100.00;100593.38;4914941;28;20152;-60
2023/10/25 08:30:53;;;;;;;25.85;9.80;;;;;;;10.28;100.00;100598.75;4924303;28;20600;-59
2023/10/25 08:33:23;;;;;;;22.13;9.65;;;;;;;10.17;100.00;100600.53;4914545;28;20150;-59
2023/10/25 08:36:02;;;;;;;28.83;9.70;;;;;;;10.17;100.00;100605.75;4924020;28;20070;-61
2023/10/25 08:38:33;;;;;;;21.67;9.32;;;;;;;10.09;100.00;100610.19;4914778;28;20060;-61
2023/10/25 08:41:05;;;;;;;18.00;9.55;;;;;;;10.01;100.00;100610.25;4923340;28;20074;-60
2023/10/25 08:43:39;;;;;;;22.00;9.18;;;;;;;9.89;100.00;100607.75;4914241;28;20061;-61
2023/10/25 08:46:10;;;;;;;23.40;9.88;;;;;;;9.72;100.00;100602.66;4924598;28;20159;-60
2023/10/25 08:48:42;;;;;;;29.33;10.48;;;;;;;9.56;100.00;100601.03;4914017;28;20694;-62
2023/10/25 08:51:15;;;;;;;24.50;9.75;;;;;;;9.39;100.00;100609.84;4924429;28;20043;-62
2023/10/25 08:53:47;;;;;;;30.55;10.45;;;;;;;9.32;100.00;100613.34;4913981;28;20062;-61
2023/10/25 08:56:20;;;;;;;18.08;9.23;;;;;;;9.35;100.00;100628.13;4914776;28;20051;-61
2023/10/25 08:58:52;;;;;;;23.27;10.30;;;;;;;9.34;100.00;100631.59;4922998;28;20710;-61
2023/10/25 09:01:24;;;;;;;20.73;10.85;;;;;;;9.31;100.00;100635.09;4913363;28;20077;-61
2023/10/25 09:03:55;;;;;;;25.05;9.85;;;;;;;9.31;100.00;100637.72;4923972;28;20051;-60
2023/10/25 09:06:26;;;;;;;25.38;10.43;;;;;;;9.23;100.00;100639.47;4914108;28;20066;-61
2023/10/25 09:09:02;;;;;;;19.27;9.50;;;;;;;9.21;100.00;100636.00;4923261;28;20500;-61
2023/10/25 09:11:44;;;;;;;22.23;9.95;;;;;;;9.14;100.00;100640.38;4913512;28;20498;-61
2023/10/25 09:14:16;;;;;;;26.13;10.45;;;;;;;9.13;100.00;100638.63;4914728;28;20055;-61
2023/10/25 09:16:47;;;;;;;22.98;10.10;;;;;;;9.10;100.00;100646.47;4923482;28;20081;-61
2023/10/25 09:19:25;;;;;;;22.92;10.02;;;;;;;9.07;100.00;100643.91;4913624;28;20456;-61
2023/10/25 09:21:55;;;;;;;33.10;10.15;;;;;;;9.06;100.00;100650.84;4922528;28;20110;-61
2023/10/25 09:24:26;;;;;;;25.98;10.07;;;;;;;9.06;100.00;100643.03;4913874;28;20047;-60
2023/10/25 09:27:07;;;;;;;21.27;9.75;;;;;;;9.09;100.00;100641.28;4922720;28;20051;-60
2023/10/25 09:29:39;;;;;;;25.60;10.57;;;;;;;9.07;100.00;100639.53;4912400;28;20054;-60
2023/10/25 09:32:10;;;;;;;28.75;10.95;;;;;;;9.07;100.00;100639.53;4923693;28;20073;-60
2023/10/25 09:34:41;;;;;;;22.60;10.73;;;;;;;9.07;100.00;100642.16;4914159;28;20058;-60
2023/10/25 09:37:12;;;;;;;24.88;10.60;;;;;;;9.06;100.00;100636.94;4922416;28;20154;-61
2023/10/25 09:39:43;;;;;;;26.65;10.20;;;;;;;8.98;100.00;100623.94;4912239;28;20062;-60
2023/10/25 09:42:15;;;;;;;25.98;10.00;;;;;;;9.08;100.00;100645.63;4916722;28;20102;-60
2023/10/25 09:44:50;;;;;;;24.05;11.00;;;;;;;9.08;100.00;100650.81;4922699;28;20482;-61
2023/10/25 09:47:23;;;;;;;29.33;11.20;;;;;;;9.09;100.00;100644.75;4913883;28;20097;-60
2023/10/25 09:50:04;;;;;;;29.27;10.88;;;;;;;9.10;100.00;100648.22;4923020;28;20051;-61
2023/10/25 09:52:37;;;;;;;23.15;10.60;;;;;;;9.13;100.00;100658.63;4913442;28;20139;-61
2023/10/25 09:55:17;;;;;;;24.60;10.65;;;;;;;9.14;100.00;100655.16;4922251;28;20055;-60
2023/10/25 09:57:49;;;;;;;23.40;10.10;;;;;;;9.16;100.00;100662.13;4913147;28;20047;-61
2023/10/25 10:00:21;;;;;;;30.75;10.82;;;;;;;9.12;100.00;100656.91;4911718;28;20055;-61
2023/10/25 10:03:00;;;;;;;27.80;10.13;;;;;;;9.12;100.00;100664.72;4922687;28;20058;-62
2023/10/25 10:05:38;;;;;;;25.85;10.55;;;;;;;9.12;100.00;100662.13;4913441;28;20055;-61
2023/10/25 10:08:16;;;;;;;22.10;9.60;;;;;;;9.12;100.00;100664.72;4923558;28;20074;-60
2023/10/25 10:10:52;;;;;;;27.98;9.63;;;;;;;9.12;100.00;100672.56;4913204;28;20065;-60
2023/10/25 10:13:22;;;;;;;24.80;10.85;;;;;;;9.10;100.00;100669.09;4913022;28;20057;-60
2023/10/25 10:16:04;;;;;;;26.98;9.43;;;;;;;9.14;100.00;100676.03;4922801;28;20077;-60
2023/10/25 10:18:36;;;;;;;21.40;9.18;;;;;;;9.11;100.00;100681.22;4913141;28;20102;-60
2023/10/25 10:21:08;;;;;;;26.60;9.80;;;;;;;9.04;100.00;100660.41;4921853;28;20051;-60
2023/10/25 10:23:40;;;;;;;26.60;9.52;;;;;;;9.07;100.00;100670.81;4912318;28;20075;-60
2023/10/25 10:26:11;;;;;;;20.88;8.57;;;;;;;9.02;100.00;100677.78;4923055;28;20074;-60
2023/10/25 10:28:46;;;;;;;24.65;9.85;;;;;;;8.92;100.00;100670.88;4913236;28;20974;-60
2023/10/25 10:31:19;;;;;;;28.23;9.63;;;;;;;8.99;100.00;100675.19;4912989;28;20795;-60
2023/10/25 10:33:50;;;;;;;22.33;8.93;;;;;;;9.00;100.00;100684.75;4921348;28;20070;-60
2023/10/25 10:36:30;;;;;;;29.17;9.50;;;;;;;9.02;100.00;100682.16;4910831;28;20091;-60
2023/10/25 10:39:16;;;;;;;31.92;10.73;;;;;;;9.02;100.00;100683.00;4922301;28;20048;-60
2023/10/25 10:41:47;;;;;;;21.67;9.32;;;;;;;8.91;100.00;100663.94;4915068;28;20070;-60
2023/10/25 10:44:17;;;;;;;23.40;8.93;;;;;;;9.03;100.00;100683.88;4916864;28;20050;-60
2023/10/25 10:46:55;;;;;;;28.20;9.82;;;;;;;8.99;100.00;100677.81;4926066;28;20500;-60
2023/10/25 10:49:30;;;;;;;27.23;9.77;;;;;;;9.04;100.00;100691.69;4916590;28;20093;-60
2023/10/25 10:52:02;;;;;;;23.58;9.25;;;;;;;8.99;100.00;100680.41;4926363;28;20050;-60
2023/10/25 10:54:33;;;;;;;21.25;8.68;;;;;;;8.89;100.00;100694.34;4916918;28;20055;-61
2023/10/25 10:57:03;;;;;;;24.58;9.65;;;;;;;9.00;100.00;100689.09;4924502;28;20059;-61
2023/10/25 10:59:34;;;;;;;31.20;9.05;;;;;;;8.77;100.00;100650.94;4915442;28;20059;-60
2023/10/25 11:02:08;;;;;;;31.33;10.18;;;;;;;8.93;100.00;100682.16;4925703;28;20145;-60
2023/10/25 11:04:38;;;;;;;32.28;9.05;;;;;;;8.86;100.00;100670.88;4915873;28;20043;-60
2023/10/25 11:07:09;;;;;;;28.85;8.68;;;;;;;8.98;100.00;100691.69;4926960;28;20149;-60
2023/10/25 11:09:39;;;;;;;25.48;8.80;;;;;;;8.63;100.00;100653.56;4915589;28;20138;-60
2023/10/25 11:12:11;;;;;;;25.90;8.85;;;;;;;8.94;100.00;100695.19;4925846;28;20114;-61
2023/10/25 11:14:45;;;;;;;31.52;8.77;;;;;;;8.81;100.00;100686.56;4916225;28;20055;-61
2023/10/25 11:17:18;;;;;;;30.40;9.35;;;;;;;8.90;100.00;100698.69;4897124;28;20043;-61
2023/10/25 11:19:49;;;;;;;29.45;9.32;;;;;;;8.94;100.00;100703.03;4931873;28;20055;-60
2023/10/25 11:22:20;;;;;;;31.67;9.15;;;;;;;8.95;100.00;100696.94;4915003;28;20094;-60
2023/10/25 11:24:50;;;;;;;27.15;9.25;;;;;;;8.92;100.00;100694.34;4925723;28;20079;-61
2023/10/25 11:27:21;;;;;;;36.17;10.02;;;;;;;8.87;100.00;100693.47;4915248;28;20126;-61
2023/10/25 11:29:51;;;;;;;24.25;8.93;;;;;;;8.87;100.00;100693.47;4924333;28;20752;-60
2023/10/25 11:32:23;;;;;;;24.25;8.82;;;;;;;8.83;100.00;100691.75;4915896;28;20066;-60
2023/10/25 11:34:56;;;;;;;32.63;9.20;;;;;;;8.82;100.00;100690.88;4925389;28;20062;-60
2023/10/25 11:37:26;;;;;;;30.20;9.70;;;;;;;8.79;100.00;100690.03;4915568;28;20125;-60